Time;durP1;ratioP1;P1;durP2;ratioP2;P2;SDS_P1;SDS_P2;PMS_P1;PMS_P2;Temp;Humidity;BMP_temperature;BMP_pressure;BME280_temperature;BME280_humidity;BME280_pressure;Samples;Min_cycle;Max_cycle;Signal;HPM_P1;HPM_P2
2023/06/07 00:01:25;;;;;;;29.93;12.57;;;23.80;99.90;;;;;;5057690;28;20547;-68
2023/06/07 00:03:53;;;;;;;24.43;13.10;;;22.90;99.90;;;;;;5054068;28;20260;-69
2023/06/07 00:06:21;;;;;;;22.60;12.37;;;22.60;99.90;;;;;;5054066;28;20234;-69
2023/06/07 00:08:49;;;;;;;17.07;11.87;;;22.90;99.90;;;;;;5054036;28;20217;-69
2023/06/07 00:11:18;;;;;;;17.00;10.13;;;23.00;99.90;;;;;;5054015;28;20173;-68
2023/06/07 00:13:45;;;;;;;15.57;8.83;;;23.60;99.90;;;;;;5054096;28;20176;-69
2023/06/07 00:16:13;;;;;;;13.00;9.00;;;23.90;99.90;;;;;;5054021;28;20180;-68
2023/06/07 00:18:40;;;;;;;13.63;8.57;;;23.80;99.90;;;;;;5053615;28;20184;-69
2023/06/07 00:21:08;;;;;;;14.43;7.80;;;23.90;99.90;;;;;;5054011;28;20378;-68
2023/06/07 00:23:35;;;;;;;7.90;5.60;;;23.90;99.90;;;;;;5053833;28;20297;-70
2023/06/07 00:26:03;;;;;;;10.40;5.63;;;24.30;99.90;;;;;;5053714;28;20196;-70
2023/06/07 00:28:30;;;;;;;10.90;5.10;;;24.10;99.90;;;;;;5053688;28;20250;-70
2023/06/07 00:30:57;;;;;;;12.03;5.80;;;23.90;99.90;;;;;;5053763;28;20756;-69
2023/06/07 00:33:25;;;;;;;12.10;6.80;;;23.40;99.90;;;;;;5053062;28;20215;-68
2023/06/07 00:35:52;;;;;;;8.73;5.30;;;23.30;99.90;;;;;;5053527;28;20180;-70
2023/06/07 00:38:19;;;;;;;8.87;6.13;;;23.70;99.90;;;;;;5053508;28;20181;-69
2023/06/07 00:40:47;;;;;;;12.07;5.80;;;23.90;99.90;;;;;;5053567;28;20266;-70
2023/06/07 00:43:14;;;;;;;8.90;5.23;;;23.90;99.90;;;;;;5053297;28;20207;-69
2023/06/07 00:45:42;;;;;;;8.33;5.80;;;23.90;99.90;;;;;;5044703;28;20287;-68
2023/06/07 00:48:09;;;;;;;9.83;5.27;;;24.00;99.90;;;;;;5033196;28;20692;-69
2023/06/07 00:50:37;;;;;;;8.03;4.40;;;23.10;99.90;;;;;;5033341;28;20296;-68
2023/06/07 00:53:05;;;;;;;6.63;4.63;;;22.40;99.90;;;;;;5033376;28;20220;-69
2023/06/07 00:55:33;;;;;;;8.40;4.67;;;22.70;99.90;;;;;;5033473;28;20182;-69
2023/06/07 00:58:00;;;;;;;6.50;3.63;;;23.20;99.90;;;;;;5033312;28;20553;-69
2023/06/07 01:00:30;;;;;;;10.07;4.47;;;23.00;99.90;;;;;;5035648;28;20251;-70
2023/06/07 01:02:57;;;;;;;8.77;3.60;;;23.60;99.90;;;;;;5035426;28;20181;-69
2023/06/07 01:05:24;;;;;;;8.73;3.73;;;23.80;99.90;;;;;;5033074;28;20201;-69
2023/06/07 01:07:54;;;;;;;6.93;3.77;;;23.60;99.90;;;;;;5032876;28;20248;-70
2023/06/07 01:10:22;;;;;;;5.70;3.57;;;23.40;99.90;;;;;;5033143;28;20204;-68
2023/06/07 01:12:54;;;;;;;5.40;3.40;;;23.20;99.90;;;;;;5033037;28;20592;-69
2023/06/07 01:15:23;;;;;;;8.17;3.40;;;23.00;99.90;;;;;;5032798;28;20265;-69
2023/06/07 01:17:53;;;;;;;6.70;3.60;;;23.30;99.90;;;;;;5033019;28;20544;-70
2023/06/07 01:20:26;;;;;;;5.30;2.77;;;23.40;99.90;;;;;;5032866;28;20181;-69
2023/06/07 01:22:57;;;;;;;7.90;2.70;;;23.30;99.90;;;;;;5033092;28;20652;-70
2023/06/07 01:25:26;;;;;;;3.87;2.63;;;23.80;99.90;;;;;;5032776;28;20165;-69
2023/06/07 01:27:56;;;;;;;5.67;2.80;;;24.20;99.90;;;;;;5032704;28;20604;-70
2023/06/07 01:30:25;;;;;;;6.43;2.97;;;24.60;99.90;;;;;;5032748;28;20267;-69
2023/06/07 01:32:52;;;;;;;8.03;2.33;;;24.70;99.90;;;;;;5032848;28;20287;-69
2023/06/07 01:35:21;;;;;;;6.60;2.27;;;24.40;99.90;;;;;;5032748;28;20242;-68
2023/06/07 01:37:49;;;;;;;2.73;1.77;;;24.50;99.90;;;;;;5032440;28;20600;-68
2023/06/07 01:40:16;;;;;;;6.13;1.90;;;24.30;99.90;;;;;;5032302;28;20585;-68
2023/06/07 01:42:45;;;;;;;5.93;1.90;;;24.70;99.90;;;;;;5014737;28;20196;-69
2023/06/07 01:45:13;;;;;;;3.20;2.00;;;24.00;99.90;;;;;;5036489;28;20224;-68
2023/06/07 01:47:41;;;;;;;3.87;1.87;;;23.60;99.90;;;;;;5050820;28;20326;-69
2023/06/07 01:50:09;;;;;;;4.03;2.30;;;23.70;99.90;;;;;;5052286;28;20169;-68
2023/06/07 01:52:36;;;;;;;7.00;1.90;;;24.10;99.90;;;;;;5034382;28;20189;-70
2023/06/07 01:55:06;;;;;;;2.90;2.13;;;24.30;99.90;;;;;;5051777;28;20230;-70
2023/06/07 01:58:12;;;;;;;4.03;1.83;;;24.10;99.90;;;;;;5052064;28;20192;-69
2023/06/07 02:00:53;;;;;;;5.63;1.90;;;24.50;99.90;;;;;;5051653;28;20263;-69
2023/06/07 02:03:43;;;;;;;3.50;1.60;;;25.40;99.90;;;;;;5052087;28;20172;-69
2023/06/07 02:06:17;;;;;;;3.27;1.60;;;24.80;99.90;;;;;;5051784;28;20512;-68
2023/06/07 02:08:52;;;;;;;6.10;1.70;;;23.90;99.90;;;;;;5051970;28;20239;-70
2023/06/07 02:11:23;;;;;;;5.27;1.83;;;24.40;99.90;;;;;;5051680;28;20710;-70
2023/06/07 02:13:51;;;;;;;2.83;1.50;;;24.40;99.90;;;;;;5034381;28;20188;-70
2023/06/07 02:16:32;;;;;;;4.90;1.97;;;24.70;99.90;;;;;;5033801;28;20239;-69
2023/06/07 02:19:00;;;;;;;5.77;2.20;;;24.60;99.90;;;;;;5051620;28;20177;-71
2023/06/07 02:21:27;;;;;;;9.13;1.90;;;24.80;99.90;;;;;;5051565;28;20176;-69
2023/06/07 02:23:55;;;;;;;3.80;1.90;;;24.50;99.90;;;;;;5051680;28;20231;-70
2023/06/07 02:26:24;;;;;;;2.90;1.80;;;24.20;99.90;;;;;;5051345;28;20202;-71
2023/06/07 02:28:51;;;;;;;5.00;2.33;;;24.40;99.90;;;;;;5051522;28;20238;-70
2023/06/07 02:31:20;;;;;;;3.37;1.77;;;24.20;99.90;;;;;;5051468;28;20177;-69
2023/06/07 02:33:49;;;;;;;4.43;1.67;;;23.80;99.90;;;;;;5051466;28;20184;-68
2023/06/07 02:36:21;;;;;;;2.00;1.20;;;24.40;99.90;;;;;;5051389;28;20181;-69
2023/06/07 02:38:48;;;;;;;3.73;1.43;;;24.20;99.90;;;;;;5051625;28;20184;-70
2023/06/07 02:41:16;;;;;;;5.20;1.37;;;24.90;99.90;;;;;;5051311;28;20300;-70
2023/06/07 02:43:44;;;;;;;5.80;1.43;;;24.70;99.90;;;;;;5051386;28;20650;-70
2023/06/07 02:46:11;;;;;;;4.93;1.60;;;25.20;99.90;;;;;;5051022;28;20291;-70
2023/06/07 02:48:40;;;;;;;4.63;1.37;;;24.70;99.90;;;;;;5051197;28;20581;-70
2023/06/07 02:51:07;;;;;;;2.47;1.43;;;24.50;99.90;;;;;;5051285;28;20768;-70
2023/06/07 02:53:35;;;;;;;2.97;1.37;;;25.00;99.90;;;;;;5051394;28;20239;-70
2023/06/07 02:56:02;;;;;;;6.80;1.60;;;25.00;99.90;;;;;;5051107;28;20621;-69
2023/06/07 02:58:30;;;;;;;4.50;1.47;;;24.90;99.90;;;;;;5051208;28;20591;-70
2023/06/07 03:00:57;;;;;;;2.60;1.10;;;24.80;99.90;;;;;;5051052;28;20223;-70
2023/06/07 03:03:24;;;;;;;4.13;1.13;;;25.40;99.90;;;;;;5051187;28;20177;-70
2023/06/07 03:05:52;;;;;;;2.23;1.20;;;25.60;99.90;;;;;;5050971;28;20177;-70
2023/06/07 03:08:20;;;;;;;2.27;1.20;;;25.40;99.90;;;;;;5050975;28;20209;-72
2023/06/07 03:10:47;;;;;;;2.30;0.87;;;25.40;99.90;;;;;;5051546;28;20176;-70
2023/06/07 03:13:14;;;;;;;3.17;1.10;;;24.40;99.90;;;;;;5055188;28;20169;-69
2023/06/07 03:15:42;;;;;;;2.70;1.10;;;24.00;99.90;;;;;;5037249;28;20181;-69
2023/06/07 03:18:15;;;;;;;2.23;1.10;;;23.40;99.90;;;;;;5037168;28;20184;-70
2023/06/07 03:20:44;;;;;;;4.50;1.30;;;23.40;99.90;;;;;;5055159;28;20192;-70
2023/06/07 03:23:11;;;;;;;2.80;1.30;;;23.40;99.90;;;;;;5054965;28;20179;-70
2023/06/07 03:25:39;;;;;;;2.67;1.23;;;23.30;99.90;;;;;;5054868;28;20628;-70
2023/06/07 03:28:06;;;;;;;5.57;1.63;;;23.30;99.90;;;;;;5054763;28;20228;-70
2023/06/07 03:30:33;;;;;;;2.67;1.20;;;23.20;99.90;;;;;;5055012;28;20173;-71
2023/06/07 03:33:02;;;;;;;4.20;1.10;;;23.40;99.90;;;;;;5054701;28;20219;-70
2023/06/07 03:35:30;;;;;;;36.63;33.63;;;24.20;99.90;;;;;;5054690;28;20191;-70
2023/06/07 03:37:58;;;;;;;86.77;79.30;;;24.80;99.90;;;;;;5036717;28;20250;-70
2023/06/07 03:40:25;;;;;;;4.17;3.20;;;25.00;99.90;;;;;;5054873;28;20224;-69
2023/06/07 03:42:52;;;;;;;7.83;6.73;;;25.20;99.90;;;;;;5054671;28;20184;-69
2023/06/07 03:45:20;;;;;;;84.17;76.23;;;25.10;99.90;;;;;;5054130;28;20224;-70
2023/06/07 03:47:47;;;;;;;10.30;7.33;;;25.30;99.90;;;;;;5054433;28;20200;-70
2023/06/07 03:50:14;;;;;;;87.07;79.27;;;25.10;99.90;;;;;;5054498;28;20223;-69
2023/06/07 03:52:42;;;;;;;125.00;112.30;;;24.90;99.90;;;;;;5054360;28;20583;-70
2023/06/07 03:55:09;;;;;;;20.40;18.43;;;24.80;99.90;;;;;;5036329;28;20668;-69
2023/06/07 03:57:37;;;;;;;19.17;17.33;;;24.70;99.90;;;;;;5054342;28;20208;-69
2023/06/07 04:00:10;;;;;;;8.90;7.07;;;24.80;99.90;;;;;;5054332;28;20165;-69
2023/06/07 04:02:37;;;;;;;21.43;19.50;;;25.00;99.90;;;;;;5054126;28;20184;-70
2023/06/07 04:05:05;;;;;;;12.03;10.97;;;25.20;99.90;;;;;;5054195;28;20188;-69
2023/06/07 04:07:32;;;;;;;6.87;5.77;;;25.30;99.90;;;;;;5054119;28;20204;-69
2023/06/07 04:10:00;;;;;;;3.03;2.63;;;25.00;99.90;;;;;;5054265;28;20206;-69
2023/06/07 04:12:27;;;;;;;8.63;5.40;;;24.70;99.90;;;;;;5054218;28;20169;-69
2023/06/07 04:14:55;;;;;;;7.47;3.13;;;24.70;99.90;;;;;;5036092;28;20188;-70
2023/06/07 04:17:22;;;;;;;4.50;3.00;;;24.50;99.90;;;;;;5053881;28;20185;-71
2023/06/07 04:19:54;;;;;;;2.77;0.90;;;24.40;99.90;;;;;;5053879;28;20177;-69
2023/06/07 04:22:22;;;;;;;4.27;1.53;;;24.10;99.90;;;;;;5053434;28;20256;-70
2023/06/07 04:24:51;;;;;;;3.83;1.10;;;24.40;99.90;;;;;;5053665;28;20188;-69
2023/06/07 04:27:19;;;;;;;3.47;1.33;;;24.60;99.90;;;;;;5035686;28;20208;-69
2023/06/07 04:29:49;;;;;;;3.30;0.70;;;24.60;99.90;;;;;;5053656;28;20176;-70
2023/06/07 04:32:19;;;;;;;2.17;0.70;;;24.70;99.90;;;;;;5053696;28;20286;-70
2023/06/07 04:34:49;;;;;;;1.97;0.53;;;24.40;99.90;;;;;;5053478;28;20177;-67
2023/06/07 04:37:16;;;;;;;1.03;0.60;;;24.50;99.90;;;;;;5053625;28;20289;-69
2023/06/07 04:39:48;;;;;;;4.60;0.77;;;24.50;99.90;;;;;;5053631;28;20626;-68
2023/06/07 04:42:18;;;;;;;4.07;0.70;;;24.50;99.90;;;;;;5035738;28;20347;-67
2023/06/07 04:44:45;;;;;;;1.13;0.50;;;24.50;99.90;;;;;;5035094;28;20185;-68
2023/06/07 04:47:13;;;;;;;1.63;0.80;;;24.50;99.90;;;;;;5053267;28;20258;-69
2023/06/07 04:49:41;;;;;;;1.93;0.50;;;24.40;99.90;;;;;;5053465;28;20232;-70
2023/06/07 04:52:08;;;;;;;1.23;0.60;;;24.10;99.90;;;;;;5053412;28;20173;-67
2023/06/07 04:54:36;;;;;;;2.67;0.70;;;24.00;99.90;;;;;;5053509;28;20280;-70
2023/06/07 04:57:04;;;;;;;1.53;0.60;;;23.70;99.90;;;;;;5053224;28;20595;-68
2023/06/07 04:59:34;;;;;;;1.00;0.70;;;23.80;99.90;;;;;;5053292;28;20713;-69
2023/06/07 05:02:02;;;;;;;2.40;0.77;;;23.90;99.90;;;;;;5053248;28;20538;-68
2023/06/07 05:04:30;;;;;;;3.43;0.60;;;23.90;99.90;;;;;;5053028;28;20177;-69
2023/06/07 05:06:58;;;;;;;0.70;0.50;;;23.90;99.90;;;;;;5053135;28;20187;-69
2023/06/07 05:09:28;;;;;;;1.63;0.43;;;23.60;99.90;;;;;;5053000;28;20188;-70
2023/06/07 05:11:57;;;;;;;1.93;0.50;;;23.50;99.90;;;;;;5053021;28;20184;-69
2023/06/07 05:14:25;;;;;;;0.57;0.40;;;23.20;99.90;;;;;;5052904;28;20184;-69
2023/06/07 05:16:53;;;;;;;1.50;0.50;;;23.20;99.90;;;;;;5052880;28;20181;-69
2023/06/07 05:19:21;;;;;;;1.10;0.50;;;23.30;99.90;;;;;;5052821;28;20343;-69
2023/06/07 05:21:48;;;;;;;1.90;0.70;;;23.20;99.90;;;;;;5052923;28;20263;-67
2023/06/07 05:24:15;;;;;;;1.30;0.60;;;23.20;99.90;;;;;;5034850;28;20188;-68
2023/06/07 05:26:43;;;;;;;2.37;0.70;;;23.20;99.90;;;;;;5052491;28;20176;-69
2023/06/07 05:29:10;;;;;;;2.47;0.70;;;22.90;99.90;;;;;;5052455;28;20696;-69
2023/06/07 05:31:37;;;;;;;2.30;0.60;;;22.50;99.90;;;;;;5053174;28;20329;-69
2023/06/07 05:34:05;;;;;;;3.53;0.97;;;22.30;99.90;;;;;;5052868;28;20188;-70
2023/06/07 05:36:34;;;;;;;1.33;0.60;;;22.10;99.90;;;;;;5053586;28;20178;-71
2023/06/07 05:39:02;;;;;;;0.73;0.57;;;22.00;99.90;;;;;;5053698;28;20176;-69
2023/06/07 05:41:30;;;;;;;1.83;0.70;;;21.80;99.90;;;;;;5053414;28;20192;-69
2023/06/07 05:43:57;;;;;;;1.43;0.70;;;21.60;99.90;;;;;;5035693;28;20573;-70
2023/06/07 05:46:25;;;;;;;1.73;0.70;;;21.50;99.90;;;;;;5053263;28;20232;-70
2023/06/07 05:48:52;;;;;;;3.80;1.07;;;21.20;99.90;;;;;;5053445;28;20622;-70
2023/06/07 05:51:19;;;;;;;3.77;0.90;;;21.10;99.90;;;;;;5053440;28;20173;-70
2023/06/07 05:53:47;;;;;;;2.37;0.83;;;21.00;99.90;;;;;;5053459;28;20632;-70
2023/06/07 05:56:16;;;;;;;2.83;0.90;;;20.80;99.90;;;;;;5053310;28;20179;-70
2023/06/07 05:58:49;;;;;;;2.13;0.90;;;20.90;99.90;;;;;;5053318;28;20538;-70
2023/06/07 06:01:17;;;;;;;3.97;0.97;;;20.80;99.90;;;;;;5053157;28;20185;-69
2023/06/07 06:03:44;;;;;;;4.03;1.10;;;20.70;99.90;;;;;;5053228;28;20289;-69
2023/06/07 06:06:16;;;;;;;0.93;0.60;;;20.60;99.90;;;;;;5053243;28;20234;-70
2023/06/07 06:08:44;;;;;;;3.17;0.80;;;20.50;99.90;;;;;;5053130;28;20674;-69
2023/06/07 06:11:13;;;;;;;1.27;0.80;;;20.40;99.90;;;;;;5053201;28;20180;-69
2023/06/07 06:13:41;;;;;;;4.93;1.00;;;20.40;99.90;;;;;;5052997;28;20176;-70
2023/06/07 06:16:09;;;;;;;1.63;0.93;;;20.30;99.90;;;;;;5035130;28;20369;-70
2023/06/07 06:18:36;;;;;;;1.77;0.97;;;20.30;99.90;;;;;;5052930;28;20169;-70
2023/06/07 06:21:04;;;;;;;2.83;1.00;;;20.20;99.90;;;;;;5053094;28;20531;-70
2023/06/07 06:23:31;;;;;;;4.10;1.10;;;20.10;99.90;;;;;;5053021;28;20203;-70
2023/06/07 06:25:59;;;;;;;2.40;0.80;;;19.90;99.90;;;;;;5052779;28;20172;-70
2023/06/07 06:28:26;;;;;;;1.13;0.90;;;19.70;99.90;;;;;;5052765;28;20214;-70
2023/06/07 06:30:53;;;;;;;4.33;1.00;;;19.70;99.90;;;;;;5052813;28;20176;-70
2023/06/07 06:33:21;;;;;;;4.80;1.17;;;19.70;99.90;;;;;;5052749;28;20196;-70
2023/06/07 06:35:48;;;;;;;1.30;0.70;;;19.60;99.90;;;;;;5052586;28;20204;-70
2023/06/07 06:38:17;;;;;;;2.60;0.87;;;19.60;99.90;;;;;;5052792;28;20182;-70
2023/06/07 06:40:45;;;;;;;1.13;0.80;;;19.40;99.90;;;;;;5052746;28;20227;-70
2023/06/07 06:43:13;;;;;;;6.93;1.30;;;19.20;99.90;;;;;;5052623;28;20195;-70
2023/06/07 06:45:40;;;;;;;4.50;1.30;;;19.20;99.90;;;;;;5051838;28;20283;-70
2023/06/07 06:48:07;;;;;;;2.10;1.17;;;19.20;99.90;;;;;;5052359;28;20209;-69
2023/06/07 06:50:35;;;;;;;3.50;1.33;;;19.10;99.90;;;;;;5052818;28;20173;-69
2023/06/07 06:53:02;;;;;;;1.97;1.20;;;18.90;99.90;;;;;;5052568;28;20188;-69
2023/06/07 06:55:30;;;;;;;5.60;2.03;;;18.90;99.90;;;;;;5052860;28;20175;-69
2023/06/07 06:57:58;;;;;;;2.20;1.20;;;18.90;99.90;;;;;;5052570;28;20551;-69
2023/06/07 07:00:25;;;;;;;3.93;2.17;;;18.90;99.90;;;;;;5052557;28;20173;-68
2023/06/07 07:02:52;;;;;;;4.27;1.80;;;18.70;99.90;;;;;;5052500;28;20208;-69
2023/06/07 07:05:20;;;;;;;5.37;1.80;;;18.70;99.90;;;;;;5052361;28;20534;-69
2023/06/07 07:07:47;;;;;;;3.07;1.83;;;18.70;99.90;;;;;;5052157;28;20215;-69
2023/06/07 07:10:15;;;;;;;6.57;1.60;;;18.50;99.90;;;;;;5052364;28;20256;-69
2023/06/07 07:12:43;;;;;;;5.63;1.83;;;18.40;99.90;;;;;;5052131;28;20202;-69
2023/06/07 07:15:10;;;;;;;5.53;1.97;;;18.40;99.90;;;;;;5052031;28;20173;-69
2023/06/07 07:17:49;;;;;;;3.20;1.60;;;18.30;99.90;;;;;;5052222;28;20556;-69
2023/06/07 07:20:18;;;;;;;7.90;2.00;;;18.30;99.90;;;;;;5052241;28;20692;-69
2023/06/07 07:22:46;;;;;;;5.97;1.77;;;18.20;99.90;;;;;;5052421;28;20681;-70
2023/06/07 07:25:16;;;;;;;6.03;1.77;;;17.90;99.90;;;;;;5052249;28;20617;-69
2023/06/07 07:27:47;;;;;;;5.37;2.00;;;18.00;99.90;;;;;;5051895;28;20208;-69
2023/06/07 07:30:18;;;;;;;4.80;1.50;;;18.00;99.90;;;;;;5034150;28;20540;-69
2023/06/07 07:32:45;;;;;;;6.07;1.87;;;18.00;99.90;;;;;;5052625;28;20219;-70
2023/06/07 07:35:13;;;;;;;4.57;1.77;;;17.80;99.90;;;;;;5052202;28;20177;-69
2023/06/07 07:37:40;;;;;;;5.17;1.90;;;17.70;99.90;;;;;;5052116;28;20275;-70
2023/06/07 07:40:14;;;;;;;5.17;2.30;;;17.70;99.90;;;;;;5034219;28;20187;-70
2023/06/07 07:46:04;;;;;;;7.27;2.40;;;17.70;99.90;;;;;;5051242;28;20232;-70
2023/06/07 07:48:31;;;;;;;4.43;1.60;;;17.70;99.90;;;;;;5034049;28;20217;-69
2023/06/07 07:50:59;;;;;;;6.27;1.70;;;17.60;99.90;;;;;;5051890;28;20181;-70
2023/06/07 07:53:27;;;;;;;5.70;2.00;;;17.50;99.90;;;;;;5051856;28;20188;-70
2023/06/07 07:55:54;;;;;;;5.40;2.00;;;17.50;99.90;;;;;;5051859;28;20544;-69
2023/06/07 07:58:21;;;;;;;6.03;2.07;;;17.50;99.90;;;;;;5054727;28;20195;-70
2023/06/07 08:00:49;;;;;;;6.30;1.70;;;17.40;99.90;;;;;;5055473;28;20235;-69
2023/06/07 08:03:16;;;;;;;5.63;2.03;;;17.50;99.90;;;;;;5055322;28;20188;-69
2023/06/07 08:05:44;;;;;;;5.30;1.77;;;17.30;99.90;;;;;;5055321;28;20505;-71
2023/06/07 08:08:11;;;;;;;5.97;2.00;;;17.20;99.90;;;;;;5055530;28;20238;-68
2023/06/07 08:10:39;;;;;;;4.17;1.70;;;17.10;99.90;;;;;;5055326;28;20654;-70
2023/06/07 08:13:06;;;;;;;5.60;1.80;;;17.00;99.90;;;;;;5055247;28;20208;-69
2023/06/07 08:15:33;;;;;;;6.73;2.30;;;17.00;99.90;;;;;;5055144;28;20204;-70
2023/06/07 08:18:01;;;;;;;5.00;2.10;;;17.00;99.90;;;;;;5055193;28;20177;-70
2023/06/07 08:20:28;;;;;;;5.73;1.80;;;16.90;99.90;;;;;;5055288;28;20173;-69
2023/06/07 08:22:56;;;;;;;5.00;2.23;;;16.90;99.90;;;;;;5055280;28;20685;-70
2023/06/07 08:25:23;;;;;;;4.70;2.33;;;16.80;99.90;;;;;;5055096;28;20544;-70
2023/06/07 08:27:50;;;;;;;4.10;2.00;;;16.80;99.90;;;;;;5055001;28;20222;-69
2023/06/07 08:30:18;;;;;;;4.67;2.10;;;16.80;99.90;;;;;;5055064;28;20204;-69
2023/06/07 08:32:45;;;;;;;5.47;2.00;;;16.80;99.90;;;;;;5055026;28;20195;-69
2023/06/07 08:35:13;;;;;;;6.20;2.20;;;16.70;99.90;;;;;;5054921;28;20272;-69
2023/06/07 08:37:41;;;;;;;3.17;1.90;;;16.60;99.90;;;;;;5055015;28;20215;-69
2023/06/07 08:40:09;;;;;;;5.10;1.97;;;16.50;99.90;;;;;;5054895;28;20311;-69
2023/06/07 08:42:39;;;;;;;5.27;2.20;;;16.50;99.90;;;;;;5054148;28;20189;-70
2023/06/07 08:45:07;;;;;;;8.07;1.90;;;16.40;99.90;;;;;;5054415;28;20681;-68
2023/06/07 08:47:36;;;;;;;5.40;2.40;;;16.40;99.90;;;;;;5054954;28;20208;-68
2023/06/07 08:50:04;;;;;;;5.43;2.23;;;16.50;99.90;;;;;;5054765;28;20187;-68
2023/06/07 08:52:33;;;;;;;6.07;2.33;;;16.60;99.90;;;;;;5054760;28;20177;-68
2023/06/07 08:55:06;;;;;;;5.47;2.20;;;16.60;99.90;;;;;;5054550;28;20257;-70
2023/06/07 08:57:34;;;;;;;5.83;2.40;;;16.50;99.90;;;;;;5054460;28;20208;-69
2023/06/07 09:00:02;;;;;;;7.10;2.57;;;16.30;99.90;;;;;;5054710;28;20177;-69
2023/06/07 09:02:30;;;;;;;6.80;2.30;;;16.20;99.90;;;;;;5054625;28;20187;-69
2023/06/07 09:04:57;;;;;;;6.03;2.93;;;16.00;99.90;;;;;;5054468;28;20187;-69
2023/06/07 09:07:24;;;;;;;5.90;2.77;;;15.90;99.90;;;;;;5054321;28;20208;-69
2023/06/07 09:09:52;;;;;;;5.70;2.37;;;15.90;99.90;;;;;;5054271;28;20177;-69
2023/06/07 09:12:19;;;;;;;4.70;2.47;;;15.80;99.90;;;;;;5036329;28;20176;-69
2023/06/07 09:14:48;;;;;;;5.83;2.90;;;15.80;99.90;;;;;;5054274;28;20175;-69
2023/06/07 09:17:15;;;;;;;7.67;2.60;;;15.80;99.90;;;;;;5054468;28;20260;-69
2023/06/07 09:19:43;;;;;;;5.13;2.50;;;15.70;99.90;;;;;;5054350;28;20184;-69
2023/06/07 09:22:17;;;;;;;5.27;2.23;;;15.70;99.90;;;;;;5054290;28;20179;-68
2023/06/07 09:24:44;;;;;;;4.87;2.40;;;15.70;99.90;;;;;;5054359;28;20614;-69
2023/06/07 09:27:13;;;;;;;3.80;2.60;;;15.60;99.90;;;;;;5054053;28;20196;-69
2023/06/07 09:29:42;;;;;;;4.07;2.83;;;15.50;99.90;;;;;;5054001;28;20173;-69
2023/06/07 09:32:27;;;;;;;4.00;2.70;;;15.40;99.90;;;;;;5054120;28;20173;-69
2023/06/07 09:35:12;;;;;;;7.27;2.77;;;15.30;99.90;;;;;;5053737;28;20176;-69
2023/06/07 09:37:47;;;;;;;6.50;3.17;;;15.30;99.90;;;;;;5054032;28;20179;-68
2023/06/07 09:40:24;;;;;;;5.27;3.47;;;15.20;99.90;;;;;;5054031;28;20298;-70
2023/06/07 09:42:59;;;;;;;6.63;2.80;;;15.20;99.90;;;;;;5053687;28;20191;-69
2023/06/07 09:45:28;;;;;;;9.13;3.67;;;15.10;99.90;;;;;;5053217;28;20551;-69
2023/06/07 09:48:09;;;;;;;10.80;3.37;;;15.00;99.90;;;;;;5053543;28;20223;-68
2023/06/07 09:50:36;;;;;;;8.20;3.60;;;14.90;99.90;;;;;;5053790;28;20222;-68
2023/06/07 09:53:04;;;;;;;7.43;3.00;;;14.90;99.90;;;;;;5053582;28;20759;-69
2023/06/07 09:55:31;;;;;;;6.83;3.23;;;14.80;99.90;;;;;;5053650;28;20173;-68
2023/06/07 09:58:20;;;;;;;4.83;3.20;;;14.70;99.90;;;;;;5053595;28;20219;-70
2023/06/07 10:00:47;;;;;;;4.37;2.87;;;14.60;99.90;;;;;;5035539;28;20187;-69
2023/06/07 10:03:16;;;;;;;5.23;3.23;;;14.60;99.90;;;;;;5053652;28;20196;-69
2023/06/07 10:05:49;;;;;;;5.50;3.03;;;14.50;99.90;;;;;;5035501;28;20609;-69
2023/06/07 10:08:16;;;;;;;7.27;2.93;;;14.50;99.90;;;;;;5053405;28;20690;-68
2023/06/07 10:10:47;;;;;;;10.53;3.30;;;14.50;99.90;;;;;;5053323;28;20255;-70
2023/06/07 10:13:17;;;;;;;5.40;3.33;;;14.40;99.90;;;;;;5053442;28;20207;-69
2023/06/07 10:15:46;;;;;;;5.67;3.10;;;14.40;99.90;;;;;;5053162;28;20255;-68
2023/06/07 10:18:26;;;;;;;7.43;3.13;;;14.30;99.90;;;;;;5053281;28;20214;-68
2023/06/07 10:21:01;;;;;;;14.67;3.90;;;14.30;99.90;;;;;;5035036;28;20246;-68
2023/06/07 10:23:57;;;;;;;7.90;3.37;;;14.30;99.90;;;;;;5053458;28;20585;-69
2023/06/07 10:26:37;;;;;;;8.47;3.23;;;14.30;99.90;;;;;;5046150;28;20192;-68
2023/06/07 10:29:17;;;;;;;6.97;2.93;;;14.20;99.90;;;;;;5053608;28;20204;-69
2023/06/07 10:31:57;;;;;;;6.57;2.87;;;14.20;99.90;;;;;;5053319;28;20175;-69
2023/06/07 10:34:25;;;;;;;6.47;2.73;;;14.10;99.90;;;;;;5053379;28;20177;-69
2023/06/07 10:36:55;;;;;;;7.70;3.10;;;14.10;99.90;;;;;;5053001;28;20189;-69
2023/06/07 10:39:25;;;;;;;8.03;3.27;;;14.00;99.90;;;;;;5053133;28;20193;-69
2023/06/07 10:41:54;;;;;;;6.20;2.70;;;14.00;99.90;;;;;;5052937;28;20573;-68
2023/06/07 10:44:24;;;;;;;8.10;3.17;;;13.90;99.90;;;;;;5052907;28;20701;-68
2023/06/07 10:47:23;;;;;;;9.53;4.03;;;13.90;99.90;;;;;;5052727;28;20228;-69
2023/06/07 10:50:00;;;;;;;5.53;2.83;;;13.90;99.90;;;;;;5053350;28;20194;-69
2023/06/07 10:52:27;;;;;;;7.17;3.37;;;13.80;99.90;;;;;;5053308;28;20233;-69
2023/06/07 10:54:55;;;;;;;7.20;3.03;;;13.80;99.90;;;;;;5052615;28;20171;-68
2023/06/07 10:57:36;;;;;;;7.10;3.50;;;13.80;99.90;;;;;;5052662;28;20185;-70
2023/06/07 11:00:31;;;;;;;7.77;3.47;;;13.80;99.90;;;;;;5052695;28;20181;-68
2023/06/07 11:03:10;;;;;;;10.97;3.60;;;13.70;99.90;;;;;;5053164;28;20177;-69
2023/06/07 11:05:57;;;;;;;6.37;3.73;;;13.60;99.90;;;;;;5052411;28;20200;-68
2023/06/07 11:08:31;;;;;;;8.77;4.57;;;13.50;99.90;;;;;;5052746;28;20250;-68
2023/06/07 11:11:36;;;;;;;7.70;4.90;;;13.50;99.90;;;;;;5052711;28;20222;-68
2023/06/07 11:14:09;;;;;;;10.83;5.13;;;13.50;99.90;;;;;;5049198;28;20234;-69
2023/06/07 11:16:36;;;;;;;12.00;4.73;;;13.50;99.90;;;;;;5052372;28;20215;-68
2023/06/07 11:19:10;;;;;;;7.23;4.13;;;13.40;99.90;;;;;;5052351;28;20183;-68
2023/06/07 11:21:55;;;;;;;7.63;4.07;;;13.40;99.90;;;;;;5052477;28;20177;-68
2023/06/07 11:24:23;;;;;;;8.37;5.00;;;13.40;99.90;;;;;;5052633;28;20192;-68
2023/06/07 11:26:51;;;;;;;9.07;4.67;;;13.40;99.90;;;;;;5052365;28;20188;-67
2023/06/07 11:29:20;;;;;;;8.70;5.13;;;13.40;99.90;;;;;;5052202;28;20216;-68
2023/06/07 11:31:48;;;;;;;14.97;5.93;;;13.40;99.90;;;;;;5052562;28;20183;-67
2023/06/07 11:34:16;;;;;;;11.73;7.30;;;13.30;99.90;;;;;;5056678;28;20254;-68
2023/06/07 11:36:43;;;;;;;10.47;6.30;;;13.30;99.90;;;;;;5056547;28;20255;-69
2023/06/07 11:39:16;;;;;;;11.10;6.33;;;13.20;99.90;;;;;;5056367;28;20214;-68
2023/06/07 11:41:44;;;;;;;9.90;6.90;;;13.20;99.90;;;;;;5056107;28;20184;-68
2023/06/07 11:44:12;;;;;;;16.27;8.43;;;13.10;99.90;;;;;;5038034;28;20212;-68
2023/06/07 11:46:39;;;;;;;15.90;8.93;;;13.00;99.90;;;;;;5037670;28;20232;-68
2023/06/07 11:49:10;;;;;;;20.33;9.50;;;13.10;99.90;;;;;;5055364;28;20573;-70
2023/06/07 11:51:39;;;;;;;18.53;10.60;;;13.10;99.90;;;;;;5055370;28;20204;-72
2023/06/07 11:54:08;;;;;;;17.93;10.27;;;13.00;99.90;;;;;;5055596;28;20224;-71
2023/06/07 11:56:37;;;;;;;15.43;9.47;;;13.00;99.90;;;;;;5054983;28;20630;-71
2023/06/07 11:59:06;;;;;;;22.57;10.50;;;12.90;99.90;;;;;;5055651;28;20184;-69
2023/06/07 12:01:34;;;;;;;14.80;9.13;;;12.90;99.90;;;;;;5055585;28;20264;-69
2023/06/07 12:04:02;;;;;;;13.07;7.90;;;12.90;99.90;;;;;;5037487;28;20191;-70
2023/06/07 12:06:29;;;;;;;16.83;10.23;;;12.80;99.90;;;;;;5037383;28;20183;-71
2023/06/07 12:08:57;;;;;;;14.03;8.17;;;12.80;99.90;;;;;;5055431;28;20254;-70
2023/06/07 12:11:24;;;;;;;14.63;8.03;;;12.70;99.90;;;;;;5037054;28;20235;-69
2023/06/07 12:13:59;;;;;;;14.00;7.57;;;12.70;99.90;;;;;;5055284;28;20180;-70
2023/06/07 12:16:28;;;;;;;13.60;7.83;;;12.70;99.90;;;;;;5054860;28;20179;-71
2023/06/07 12:18:55;;;;;;;11.27;6.53;;;12.60;99.90;;;;;;5055225;28;20176;-71
2023/06/07 12:21:24;;;;;;;11.67;6.73;;;12.60;99.90;;;;;;5054828;28;20184;-72
2023/06/07 12:23:55;;;;;;;10.10;7.17;;;12.60;99.90;;;;;;5055223;28;20176;-70
2023/06/07 12:26:28;;;;;;;11.70;7.03;;;12.60;99.90;;;;;;5054947;28;20176;-71
2023/06/07 12:28:56;;;;;;;17.20;7.93;;;12.60;99.90;;;;;;5055058;28;20266;-70
2023/06/07 12:31:25;;;;;;;12.30;7.47;;;12.60;99.90;;;;;;5054675;28;20203;-71
2023/06/07 12:34:10;;;;;;;11.60;7.27;;;12.50;99.90;;;;;;5036801;28;20551;-70
2023/06/07 12:36:39;;;;;;;12.43;7.10;;;12.50;99.90;;;;;;5054577;28;20271;-72
2023/06/07 12:39:11;;;;;;;15.07;8.20;;;12.40;99.90;;;;;;5054873;28;20180;-71
2023/06/07 12:41:41;;;;;;;13.83;7.97;;;12.50;99.90;;;;;;5054827;28;20266;-70
2023/06/07 12:44:12;;;;;;;16.03;8.67;;;12.50;99.90;;;;;;5054057;28;20184;-70
2023/06/07 12:46:39;;;;;;;14.73;8.30;;;12.50;99.90;;;;;;5054438;28;20232;-69
2023/06/07 12:49:07;;;;;;;11.40;8.00;;;12.50;99.90;;;;;;5054577;28;20747;-71
2023/06/07 12:51:34;;;;;;;13.50;8.57;;;12.40;99.90;;;;;;5054307;28;20169;-68
2023/06/07 12:54:02;;;;;;;12.10;8.20;;;12.30;99.90;;;;;;5036581;28;20188;-72
2023/06/07 12:56:29;;;;;;;15.03;8.20;;;12.40;99.90;;;;;;5036213;28;20188;-69
2023/06/07 12:58:57;;;;;;;17.23;8.47;;;12.30;99.90;;;;;;5054270;28;20274;-71